createdAt,value
2022-10-15T00:00:43.356Z,13.92
2022-10-15T00:01:43.399Z,13.93
2022-10-15T00:02:43.343Z,13.96
2022-10-15T00:03:43.346Z,13.97
2022-10-15T00:04:43.313Z,13.93
2022-10-15T00:05:43.305Z,13.94
2022-10-15T00:06:43.296Z,13.87
2022-10-15T00:07:43.294Z,13.95
2022-10-15T00:08:43.299Z,13.95
2022-10-15T00:09:43.252Z,13.95
2022-10-15T00:10:43.247Z,13.95
2022-10-15T00:11:43.235Z,13.86
2022-10-15T00:12:43.240Z,13.95
2022-10-15T00:13:43.240Z,13.93
2022-10-15T00:14:43.193Z,13.94
2022-10-15T00:15:43.189Z,13.87
2022-10-15T00:16:43.187Z,13.88
2022-10-15T00:17:43.181Z,13.88
2022-10-15T00:18:43.170Z,13.94
2022-10-15T00:19:43.150Z,13.93
2022-10-15T00:20:43.126Z,13.87
2022-10-15T00:21:43.114Z,13.89
2022-10-15T00:22:43.098Z,13.94
2022-10-15T00:23:43.105Z,13.91
2022-10-15T00:24:43.087Z,13.89
2022-10-15T00:25:43.065Z,13.93
2022-10-15T00:26:43.065Z,13.89
2022-10-15T00:27:43.046Z,13.97
2022-10-15T00:28:43.067Z,13.99
2022-10-15T00:29:43.024Z,13.94
2022-10-15T00:30:43.007Z,13.96
2022-10-15T00:31:43.003Z,14.03
2022-10-15T00:32:42.985Z,14.04
2022-10-15T00:33:43.003Z,14.12
2022-10-15T00:34:42.959Z,14.12
2022-10-15T00:35:42.949Z,14.16
2022-10-15T00:36:42.941Z,14.15
2022-10-15T00:37:42.929Z,14.12
2022-10-15T00:38:42.931Z,14.15
2022-10-15T00:39:42.903Z,14.10
2022-10-15T00:40:42.888Z,14.17
2022-10-15T00:41:42.888Z,14.15
2022-10-15T00:42:42.869Z,14.14
2022-10-15T00:43:42.868Z,14.25
2022-10-15T00:44:42.849Z,14.18
2022-10-15T00:45:42.830Z,14.17
2022-10-15T00:46:42.820Z,14.19
2022-10-15T00:47:42.809Z,14.22
2022-10-15T00:48:42.795Z,14.26
2022-10-15T00:49:42.811Z,14.35
2022-10-15T00:50:42.769Z,14.35
2022-10-15T00:51:42.768Z,14.34
2022-10-15T00:52:42.751Z,14.31
2022-10-15T00:53:42.782Z,14.30
2022-10-15T00:54:42.727Z,14.36
2022-10-15T00:55:42.731Z,14.31
2022-10-15T00:56:42.712Z,14.35
2022-10-15T00:57:42.698Z,14.35
2022-10-15T00:58:42.693Z,14.37
2022-10-15T00:59:42.674Z,14.35
2022-10-15T01:00:42.654Z,14.28
2022-10-15T01:01:42.662Z,14.35
2022-10-15T01:02:42.636Z,14.31
2022-10-15T01:03:42.629Z,14.30
2022-10-15T01:04:42.631Z,14.35
2022-10-15T01:05:42.601Z,14.27
2022-10-15T01:06:42.595Z,14.31
2022-10-15T01:07:42.589Z,14.31
2022-10-15T01:08:42.582Z,14.28
2022-10-15T01:09:42.553Z,14.26
2022-10-15T01:10:42.542Z,14.26
2022-10-15T01:11:42.543Z,14.26
2022-10-15T01:12:42.518Z,14.29
2022-10-15T01:13:42.532Z,14.23
2022-10-15T01:14:42.493Z,14.20
2022-10-15T01:15:42.489Z,14.24
2022-10-15T01:16:42.485Z,14.25
2022-10-15T01:17:42.462Z,14.20
2022-10-15T01:18:42.452Z,14.23
2022-10-15T01:19:42.455Z,14.22
2022-10-15T01:20:42.431Z,14.28
2022-10-15T01:21:42.418Z,14.26
2022-10-15T01:22:42.404Z,14.31
2022-10-15T01:23:42.414Z,14.32
2022-10-15T01:24:42.383Z,14.37
2022-10-15T01:25:42.375Z,14.39
2022-10-15T01:26:42.366Z,14.43
2022-10-15T01:27:42.351Z,14.51
2022-10-15T01:28:42.368Z,14.50
2022-10-15T01:29:42.325Z,14.62
2022-10-15T01:30:42.311Z,14.65
2022-10-15T01:31:42.312Z,14.65
2022-10-15T01:32:42.286Z,14.68
2022-10-15T01:33:42.297Z,14.73
2022-10-15T01:34:42.267Z,14.71
2022-10-15T01:35:42.256Z,14.66
2022-10-15T01:36:42.249Z,14.68
2022-10-15T01:37:42.238Z,14.63
2022-10-15T01:38:42.237Z,14.65
2022-10-15T01:39:42.215Z,14.55
2022-10-15T01:40:42.195Z,14.60
2022-10-15T01:41:42.195Z,14.55
2022-10-15T01:42:42.177Z,14.46
2022-10-15T01:43:42.179Z,14.42
2022-10-15T01:44:42.160Z,14.41
2022-10-15T01:45:42.139Z,14.38
2022-10-15T01:46:42.137Z,14.43
2022-10-15T01:47:42.122Z,14.39
2022-10-15T01:48:42.119Z,14.30
2022-10-15T01:49:42.089Z,14.35
2022-10-15T01:50:42.084Z,14.35
2022-10-15T01:51:42.080Z,14.34
2022-10-15T01:52:42.073Z,14.35
2022-10-15T01:53:42.051Z,14.29
2022-10-15T01:54:42.059Z,14.25
2022-10-15T01:55:42.017Z,14.28
2022-10-15T01:56:42.008Z,14.25
2022-10-15T01:57:41.998Z,14.25
2022-10-15T01:58:42.012Z,14.21
2022-10-15T01:59:41.979Z,14.21
2022-10-15T02:00:42.001Z,14.26
2022-10-15T02:02:41.946Z,14.16
2022-10-15T02:03:41.954Z,14.19
2022-10-15T02:04:41.914Z,14.12
2022-10-15T02:05:41.901Z,14.14
2022-10-15T02:06:41.902Z,14.14
2022-10-15T02:07:41.879Z,14.10
2022-10-15T02:08:41.877Z,14.10
2022-10-15T02:09:41.884Z,14.06
2022-10-15T02:10:41.921Z,14.08
2022-10-15T02:11:41.830Z,14.12
2022-10-15T02:12:41.834Z,14.08
2022-10-15T02:13:41.836Z,14.02
2022-10-15T02:14:41.804Z,14.08
2022-10-15T02:15:41.791Z,14.05
2022-10-15T02:16:41.783Z,14.07
2022-10-15T02:17:41.762Z,14.06
2022-10-15T02:18:41.776Z,14.04
2022-10-15T02:19:41.740Z,14.04
2022-10-15T02:20:41.733Z,14.00
2022-10-15T02:21:41.715Z,14.01
2022-10-15T02:22:41.701Z,14.06
2022-10-15T02:23:41.693Z,13.98
2022-10-15T02:24:41.691Z,13.94
2022-10-15T02:25:41.673Z,13.94
2022-10-15T02:26:41.669Z,13.96
2022-10-15T02:27:41.645Z,13.97
2022-10-15T02:28:41.697Z,13.93
2022-10-15T02:29:41.621Z,13.91
2022-10-15T02:30:41.618Z,13.92
2022-10-15T02:31:41.609Z,13.93
2022-10-15T02:32:41.592Z,13.94
2022-10-15T02:33:41.594Z,13.86
2022-10-15T02:34:41.570Z,13.86
2022-10-15T02:35:41.554Z,13.84
2022-10-15T02:36:41.545Z,13.88
2022-10-15T02:37:41.515Z,13.88
2022-10-15T02:38:41.536Z,13.89
2022-10-15T02:39:41.503Z,13.90
2022-10-15T02:40:41.494Z,13.87
2022-10-15T02:41:41.482Z,13.85
2022-10-15T02:42:41.473Z,13.84
2022-10-15T02:43:41.470Z,13.87
2022-10-15T02:44:41.444Z,13.83
2022-10-15T02:45:41.436Z,13.85
2022-10-15T02:46:41.427Z,13.82
2022-10-15T02:47:41.404Z,13.87
2022-10-15T02:48:41.416Z,13.89
2022-10-15T02:49:41.389Z,13.87
2022-10-15T02:50:41.372Z,13.91
2022-10-15T02:51:41.379Z,13.90
2022-10-15T02:52:41.348Z,13.89
2022-10-15T02:53:41.355Z,13.88
2022-10-15T02:54:41.329Z,13.88
2022-10-15T02:55:41.306Z,13.87
2022-10-15T02:56:41.314Z,13.86
2022-10-15T02:57:41.289Z,13.91
2022-10-15T02:58:41.307Z,13.93
2022-10-15T02:59:41.265Z,13.96
2022-10-15T03:00:41.295Z,13.96
2022-10-15T03:01:41.253Z,13.98
2022-10-15T03:02:41.247Z,13.98
2022-10-15T03:03:41.237Z,13.96
2022-10-15T03:04:41.210Z,13.95
2022-10-15T03:05:41.195Z,13.97
2022-10-15T03:06:41.198Z,14.02
2022-10-15T03:07:41.177Z,13.98
2022-10-15T03:08:41.171Z,14.04
2022-10-15T03:09:41.168Z,13.97
2022-10-15T03:10:41.137Z,14.04
2022-10-15T03:11:41.132Z,14.00
2022-10-15T03:12:41.121Z,14.09
2022-10-15T03:13:41.122Z,14.08
2022-10-15T03:14:41.105Z,14.05
2022-10-15T03:15:41.078Z,14.11
2022-10-15T03:16:41.081Z,14.07
2022-10-15T03:17:41.058Z,14.08
2022-10-15T03:18:41.122Z,14.15
2022-10-15T03:19:41.054Z,14.12
2022-10-15T03:20:41.022Z,14.10
2022-10-15T03:21:41.009Z,14.09
2022-10-15T03:22:40.999Z,14.13
2022-10-15T03:23:40.991Z,14.15
2022-10-15T03:24:40.998Z,14.13
2022-10-15T03:25:40.983Z,14.13
2022-10-15T03:26:40.961Z,14.09
2022-10-15T03:27:40.942Z,14.07
2022-10-15T03:28:41.016Z,14.12
2022-10-15T03:29:40.912Z,14.10
2022-10-15T03:30:40.914Z,14.08
2022-10-15T03:31:40.898Z,14.08
2022-10-15T03:32:40.916Z,14.16
2022-10-15T03:33:40.886Z,14.15
2022-10-15T03:34:40.860Z,14.16
2022-10-15T03:35:40.849Z,14.16
2022-10-15T03:36:40.846Z,14.24
2022-10-15T03:37:40.820Z,14.27
2022-10-15T03:38:40.810Z,14.29
2022-10-15T03:39:40.824Z,14.31
2022-10-15T03:40:40.795Z,14.35
2022-10-15T03:41:40.828Z,14.35
2022-10-15T03:42:40.781Z,14.34
2022-10-15T03:43:42.884Z,14.36
2022-10-15T03:44:40.747Z,14.35
2022-10-15T03:45:40.734Z,14.39
2022-10-15T03:46:40.713Z,14.36
2022-10-15T03:47:40.705Z,14.30
2022-10-15T03:48:40.713Z,14.31
2022-10-15T03:49:40.675Z,14.29
2022-10-15T03:50:40.705Z,14.35
2022-10-15T03:51:40.661Z,14.32
2022-10-15T03:52:40.655Z,14.36
2022-10-15T03:53:40.651Z,14.36
2022-10-15T03:54:40.636Z,14.37
2022-10-15T03:55:40.603Z,14.40
2022-10-15T03:56:40.612Z,14.41
2022-10-15T03:57:40.586Z,14.41
2022-10-15T03:58:40.595Z,14.44
2022-10-15T03:59:40.579Z,14.40
2022-10-15T04:00:40.649Z,14.40
2022-10-15T04:01:40.543Z,14.35
2022-10-15T04:02:40.534Z,14.35
2022-10-15T04:03:40.522Z,14.34
2022-10-15T04:04:40.518Z,14.35
2022-10-15T04:05:40.491Z,14.42
2022-10-15T04:06:40.494Z,14.40
2022-10-15T04:07:40.472Z,14.38
2022-10-15T04:08:40.574Z,14.47
2022-10-15T04:09:40.456Z,14.42
2022-10-15T04:10:40.436Z,14.40
2022-10-15T04:11:40.430Z,14.42
2022-10-15T04:12:40.422Z,14.45
2022-10-15T04:13:40.428Z,14.48
2022-10-15T04:14:40.402Z,14.49
2022-10-15T04:15:40.390Z,14.50
2022-10-15T04:16:40.370Z,14.50
2022-10-15T04:17:40.399Z,14.48
2022-10-15T04:18:40.350Z,14.54
2022-10-15T04:19:40.353Z,14.46
2022-10-15T04:20:40.316Z,14.51
2022-10-15T04:21:40.320Z,14.50
2022-10-15T04:22:40.302Z,14.56
2022-10-15T04:23:40.299Z,14.58
2022-10-15T04:24:40.269Z,14.52
2022-10-15T04:25:40.278Z,14.54
2022-10-15T04:26:40.265Z,14.49
2022-10-15T04:27:40.245Z,14.46
2022-10-15T04:28:40.294Z,14.49
2022-10-15T04:29:40.215Z,14.45
2022-10-15T04:30:40.205Z,14.47
2022-10-15T04:31:40.191Z,14.45
2022-10-15T04:32:40.185Z,14.42
2022-10-15T04:33:40.195Z,14.45
2022-10-15T04:34:40.161Z,14.42
2022-10-15T04:35:40.145Z,14.47
2022-10-15T04:36:40.140Z,14.47
2022-10-15T04:37:40.137Z,14.47
2022-10-15T04:38:40.111Z,14.45
2022-10-15T04:39:40.135Z,14.43
2022-10-15T04:40:40.089Z,14.46
2022-10-15T04:41:40.080Z,14.47
2022-10-15T04:42:40.072Z,14.46
2022-10-15T04:43:40.063Z,14.44
2022-10-15T04:44:40.041Z,14.49
2022-10-15T04:45:40.066Z,14.47
2022-10-15T04:46:40.091Z,14.45
2022-10-15T04:47:40.045Z,14.47
2022-10-15T04:48:42.934Z,14.47
2022-10-15T04:49:39.986Z,14.48
2022-10-15T04:50:40.010Z,14.49
2022-10-15T04:51:39.989Z,14.53
2022-10-15T04:52:39.976Z,14.47
2022-10-15T04:53:39.956Z,14.48
2022-10-15T04:54:39.938Z,14.48
2022-10-15T04:55:39.918Z,14.50
2022-10-15T04:56:39.951Z,14.50
2022-10-15T04:57:39.894Z,14.44
2022-10-15T04:58:39.874Z,14.46
2022-10-15T04:59:39.862Z,14.45
2022-10-15T05:00:39.853Z,14.43
2022-10-15T05:01:39.853Z,14.38
2022-10-15T05:02:39.898Z,14.39
2022-10-15T05:03:42.450Z,14.42
2022-10-15T05:04:40.816Z,14.40
2022-10-15T05:05:39.795Z,14.39
2022-10-15T05:06:39.810Z,14.46
2022-10-15T05:07:39.774Z,14.39
2022-10-15T05:08:39.762Z,14.43
2022-10-15T05:09:43.990Z,14.40
2022-10-15T05:10:40.746Z,14.43
2022-10-15T05:11:39.723Z,14.44
2022-10-15T05:12:39.787Z,14.42
2022-10-15T05:13:39.712Z,14.41
2022-10-15T05:14:39.724Z,14.50
2022-10-15T05:15:39.687Z,14.44
2022-10-15T05:16:39.670Z,14.47
2022-10-15T05:17:39.675Z,14.45
2022-10-15T05:18:39.659Z,14.52
2022-10-15T05:19:39.640Z,14.46
2022-10-15T05:20:39.625Z,14.46
2022-10-15T05:21:39.655Z,14.47
2022-10-15T05:22:39.599Z,14.44
2022-10-15T05:23:39.595Z,14.51
2022-10-15T05:24:39.578Z,14.49
2022-10-15T05:25:39.565Z,14.48
2022-10-15T05:26:39.563Z,14.45
2022-10-15T05:27:39.539Z,14.49
2022-10-15T05:28:39.600Z,14.54
2022-10-15T05:29:39.515Z,14.49
2022-10-15T05:30:39.515Z,14.50
2022-10-15T05:31:39.501Z,14.47
2022-10-15T05:32:39.496Z,14.53
2022-10-15T05:33:39.485Z,14.52
2022-10-15T05:34:39.467Z,14.48
2022-10-15T05:35:39.448Z,14.54
2022-10-15T05:36:39.442Z,14.54
2022-10-15T05:37:39.426Z,14.48
2022-10-15T05:38:39.450Z,14.51
2022-10-15T05:39:39.398Z,14.51
2022-10-15T05:40:39.402Z,14.51
2022-10-15T05:41:39.379Z,14.51
2022-10-15T05:42:39.379Z,14.54
2022-10-15T05:43:41.338Z,14.49
2022-10-15T05:44:39.361Z,14.56
2022-10-15T05:45:39.341Z,14.57
2022-10-15T05:46:39.322Z,14.52
2022-10-15T05:47:39.314Z,14.57
2022-10-15T05:48:39.299Z,14.52
2022-10-15T05:49:39.298Z,14.55
2022-10-15T05:50:39.280Z,14.58
2022-10-15T05:51:39.274Z,14.57
2022-10-15T05:52:39.263Z,14.57
2022-10-15T05:53:39.239Z,14.52
2022-10-15T05:54:39.257Z,14.48
2022-10-15T05:55:39.217Z,14.52
2022-10-15T05:56:39.221Z,14.56
2022-10-15T05:57:39.205Z,14.55
2022-10-15T05:58:39.179Z,14.53
2022-10-15T05:59:39.173Z,14.56
2022-10-15T06:00:39.172Z,14.49
2022-10-15T06:01:39.181Z,14.55
2022-10-15T06:02:39.304Z,14.58
2022-10-15T06:03:39.131Z,14.57
2022-10-15T06:04:39.111Z,14.55
2022-10-15T06:05:39.123Z,14.56
2022-10-15T06:06:39.098Z,14.58
2022-10-15T06:07:39.090Z,14.54
2022-10-15T06:08:39.062Z,14.51
2022-10-15T06:09:39.051Z,14.59
2022-10-15T06:10:39.036Z,14.52
2022-10-15T06:11:39.054Z,14.51
2022-10-15T06:12:39.025Z,14.59
2022-10-15T06:13:39.017Z,14.56
2022-10-15T06:14:39.003Z,14.55
2022-10-15T06:15:39.004Z,14.51
2022-10-15T06:16:38.997Z,14.57
2022-10-15T06:17:38.960Z,14.61
2022-10-15T06:18:38.950Z,14.59
2022-10-15T06:19:38.943Z,14.60
2022-10-15T06:20:38.933Z,14.61
2022-10-15T06:21:38.936Z,14.61
2022-10-15T06:22:38.906Z,14.56
2022-10-15T06:23:38.892Z,14.61
2022-10-15T06:24:38.879Z,14.65
2022-10-15T06:25:38.872Z,14.59
2022-10-15T06:26:38.869Z,14.65
2022-10-15T06:27:38.846Z,14.65
2022-10-15T06:28:38.861Z,14.66
2022-10-15T06:29:38.826Z,14.66
2022-10-15T06:30:38.807Z,14.69
2022-10-15T06:31:38.814Z,14.66
2022-10-15T06:32:38.785Z,14.70
2022-10-15T06:33:38.780Z,14.69
2022-10-15T06:34:38.760Z,14.72
2022-10-15T06:35:38.749Z,14.70
2022-10-15T06:36:38.734Z,14.66
2022-10-15T06:37:38.742Z,14.60
2022-10-15T06:38:38.711Z,14.68
2022-10-15T06:39:38.705Z,14.69
2022-10-15T06:40:38.689Z,14.66
2022-10-15T06:41:38.681Z,14.65
2022-10-15T06:42:38.688Z,14.65
2022-10-15T06:43:38.729Z,14.68
2022-10-15T06:44:38.638Z,14.68
2022-10-15T06:45:38.639Z,14.71
2022-10-15T06:46:38.606Z,14.77
2022-10-15T06:47:38.629Z,14.66
2022-10-15T06:48:38.598Z,14.73
2022-10-15T06:49:38.586Z,14.73
2022-10-15T06:50:38.577Z,14.78
2022-10-15T06:51:38.563Z,14.83
2022-10-15T06:52:38.576Z,14.85
2022-10-15T06:53:38.547Z,14.80
2022-10-15T06:54:38.528Z,14.75
2022-10-15T06:55:38.512Z,14.79
2022-10-15T06:56:38.507Z,14.74
2022-10-15T06:57:38.490Z,14.75
2022-10-15T06:58:38.500Z,14.76
2022-10-15T06:59:41.225Z,14.76
2022-10-15T07:00:38.469Z,14.75
2022-10-15T07:01:41.393Z,14.77
2022-10-15T07:02:38.433Z,14.76
2022-10-15T07:03:38.432Z,14.77
2022-10-15T07:04:38.409Z,14.80
2022-10-15T07:05:38.400Z,14.72
2022-10-15T07:06:38.387Z,14.76
2022-10-15T07:07:38.374Z,14.73
2022-10-15T07:08:38.379Z,14.77
2022-10-15T07:09:38.360Z,14.74
2022-10-15T07:10:38.331Z,14.66
2022-10-15T07:11:38.328Z,14.71
2022-10-15T07:12:38.319Z,14.73
2022-10-15T07:13:38.302Z,14.72
2022-10-15T07:14:41.539Z,14.66
2022-10-15T07:15:38.281Z,14.65
2022-10-15T07:16:38.270Z,14.55
2022-10-15T07:17:38.264Z,14.59
2022-10-15T07:18:38.261Z,14.60
2022-10-15T07:19:38.244Z,14.65
2022-10-15T07:20:38.220Z,14.60
2022-10-15T07:21:38.211Z,14.62
2022-10-15T07:22:38.211Z,14.57
2022-10-15T07:23:38.216Z,14.54
2022-10-15T07:24:38.182Z,14.52
2022-10-15T07:25:38.170Z,14.49
2022-10-15T07:26:38.160Z,14.46
2022-10-15T07:27:38.150Z,14.50
2022-10-15T07:28:38.218Z,14.44
2022-10-15T07:29:38.136Z,14.46
2022-10-15T07:30:38.112Z,14.46
2022-10-15T07:31:38.177Z,14.42
2022-10-15T07:32:38.083Z,14.39
2022-10-15T07:33:38.075Z,14.41
2022-10-15T07:34:38.072Z,14.44
2022-10-15T07:35:38.058Z,14.35
2022-10-15T07:36:38.043Z,14.34
2022-10-15T07:37:38.044Z,14.27
2022-10-15T07:38:38.023Z,14.31
2022-10-15T07:39:40.906Z,14.28
2022-10-15T07:40:38.010Z,14.28
2022-10-15T07:41:37.994Z,14.30
2022-10-15T07:42:37.963Z,14.19
2022-10-15T07:43:37.972Z,14.21
2022-10-15T07:44:37.945Z,14.20
2022-10-15T07:45:37.981Z,14.18
2022-10-15T07:46:37.940Z,14.16
2022-10-15T07:47:37.923Z,14.16
2022-10-15T07:48:37.895Z,14.13
2022-10-15T07:49:37.916Z,14.13
2022-10-15T07:50:40.310Z,14.08
2022-10-15T07:51:37.907Z,14.12
2022-10-15T07:52:37.852Z,14.11
2022-10-15T07:53:37.847Z,14.10
2022-10-15T07:54:37.832Z,14.09
2022-10-15T07:55:37.820Z,14.05
2022-10-15T07:56:37.808Z,14.05
2022-10-15T07:57:37.813Z,14.07
2022-10-15T07:58:37.801Z,14.01
2022-10-15T07:59:37.775Z,14.00
2022-10-15T08:00:37.757Z,13.96
2022-10-15T08:01:37.744Z,14.01
2022-10-15T08:02:37.740Z,13.96
2022-10-15T08:03:37.748Z,14.00
2022-10-15T08:04:37.718Z,13.93
2022-10-15T08:05:37.704Z,13.96
2022-10-15T08:06:37.697Z,13.98
2022-10-15T08:07:37.685Z,13.96
2022-10-15T08:08:37.702Z,13.97
2022-10-15T08:09:37.724Z,13.93
2022-10-15T08:10:37.638Z,13.94
2022-10-15T08:11:37.642Z,13.93
2022-10-15T08:12:37.619Z,13.93
2022-10-15T08:13:37.610Z,13.87
2022-10-15T08:14:37.622Z,13.85
2022-10-15T08:15:37.604Z,13.89
2022-10-15T08:16:37.581Z,13.92
2022-10-15T08:17:37.581Z,13.87
2022-10-15T08:18:37.562Z,13.85
2022-10-15T08:19:37.563Z,13.84
2022-10-15T08:20:37.525Z,13.81
2022-10-15T08:21:37.526Z,13.83
2022-10-15T08:22:37.510Z,13.75
2022-10-15T08:23:37.507Z,13.80
2022-10-15T08:24:37.484Z,13.81
2022-10-15T08:25:37.481Z,13.84
2022-10-15T08:26:37.460Z,13.76
2022-10-15T08:27:37.441Z,13.85
2022-10-15T08:28:37.480Z,13.83
2022-10-15T08:29:37.431Z,13.87
2022-10-15T08:30:37.421Z,13.84
2022-10-15T08:31:37.402Z,13.87
2022-10-15T08:32:37.394Z,13.89
2022-10-15T08:33:37.374Z,13.86
2022-10-15T08:34:37.353Z,13.91
2022-10-15T08:35:37.373Z,13.85
2022-10-15T08:36:37.331Z,13.87
2022-10-15T08:37:37.331Z,13.88
2022-10-15T08:38:37.316Z,13.84
2022-10-15T08:39:37.311Z,13.89
2022-10-15T08:40:37.311Z,13.84
2022-10-15T08:41:37.289Z,13.87
2022-10-15T08:42:37.267Z,13.96
2022-10-15T08:43:37.266Z,13.96
2022-10-15T08:44:37.250Z,14.01
2022-10-15T08:45:37.253Z,14.14
2022-10-15T08:46:37.230Z,14.06
2022-10-15T08:47:37.223Z,14.09
2022-10-15T08:48:37.194Z,14.10
2022-10-15T08:49:37.183Z,14.15
2022-10-15T08:50:37.198Z,14.13
2022-10-15T08:51:37.165Z,14.23
2022-10-15T08:52:37.153Z,14.27
2022-10-15T08:53:37.143Z,14.34
2022-10-15T08:54:37.124Z,14.35
2022-10-15T08:55:37.144Z,14.47
2022-10-15T08:56:37.106Z,14.48
2022-10-15T08:57:37.096Z,14.56
2022-10-15T08:58:39.692Z,14.55
2022-10-15T08:59:37.066Z,14.56
2022-10-15T09:00:37.090Z,14.46
2022-10-15T09:01:37.058Z,14.44
2022-10-15T09:02:37.090Z,14.42
2022-10-15T09:03:37.017Z,14.35
2022-10-15T09:04:37.012Z,14.35
2022-10-15T09:05:37.015Z,14.38
2022-10-15T09:06:37.000Z,14.40
2022-10-15T09:07:36.977Z,14.43
2022-10-15T09:08:36.955Z,14.49
2022-10-15T09:09:36.959Z,14.61
2022-10-15T09:10:36.937Z,14.49
2022-10-15T09:11:36.946Z,14.57
2022-10-15T09:12:36.921Z,14.82
2022-10-15T09:14:36.887Z,15.04
2022-10-15T09:15:36.879Z,15.16
2022-10-15T09:16:36.865Z,15.25
2022-10-15T09:17:36.879Z,15.31
2022-10-15T09:18:36.856Z,15.38
2022-10-15T09:19:36.839Z,15.33
2022-10-15T09:20:36.809Z,15.35
2022-10-15T09:21:36.809Z,15.37
2022-10-15T09:22:36.858Z,15.34
2022-10-15T09:23:36.797Z,15.37
2022-10-15T09:24:36.767Z,15.41
2022-10-15T09:25:36.761Z,15.54
2022-10-15T09:26:36.758Z,15.59
2022-10-15T09:27:36.763Z,15.60
2022-10-15T09:28:36.788Z,15.84
2022-10-15T09:29:36.717Z,16.25
2022-10-15T09:30:36.698Z,16.75
2022-10-15T09:31:36.697Z,17.28
2022-10-15T09:32:36.696Z,18.13
2022-10-15T09:33:36.671Z,18.88
2022-10-15T09:34:36.663Z,19.21
2022-10-15T09:35:36.659Z,20.09
2022-10-15T09:36:36.652Z,20.95
2022-10-15T09:37:36.641Z,21.78
2022-10-15T09:38:36.621Z,22.26
2022-10-15T09:39:36.610Z,22.79
2022-10-15T09:40:36.589Z,23.25
2022-10-15T09:41:36.583Z,23.97
2022-10-15T09:42:36.580Z,24.62
2022-10-15T09:43:36.581Z,25.16
2022-10-15T09:44:36.542Z,26.17
2022-10-15T09:45:36.546Z,27.68
2022-10-15T09:46:36.527Z,28.60
2022-10-15T09:47:36.511Z,29.73
2022-10-15T09:48:36.512Z,30.71
2022-10-15T09:49:36.632Z,31.70
2022-10-15T09:50:36.475Z,32.79
2022-10-15T09:51:36.463Z,33.60
2022-10-15T09:52:36.455Z,33.82
2022-10-15T09:53:36.434Z,34.37
2022-10-15T09:54:36.441Z,35.03
2022-10-15T09:55:36.411Z,35.60
2022-10-15T09:56:36.407Z,35.72
2022-10-15T09:57:36.395Z,36.02
2022-10-15T09:58:36.388Z,37.30
2022-10-15T09:59:36.388Z,39.39
2022-10-15T10:00:36.364Z,41.82
2022-10-15T10:01:36.347Z,45.00
2022-10-15T10:02:36.416Z,46.96
2022-10-15T10:03:36.327Z,48.44
2022-10-15T10:04:36.334Z,49.85
2022-10-15T10:05:36.303Z,51.91
2022-10-15T10:06:36.294Z,54.02
2022-10-15T10:07:36.286Z,57.02
2022-10-15T10:08:36.306Z,59.40
2022-10-15T10:09:36.282Z,62.77
2022-10-15T10:10:36.250Z,67.45
2022-10-15T10:11:36.227Z,70.80
2022-10-15T10:12:36.218Z,74.44
2022-10-15T10:13:36.195Z,77.10
2022-10-15T10:14:36.217Z,80.27
2022-10-15T10:15:36.176Z,82.64
2022-10-15T10:16:36.171Z,85.15
2022-10-15T10:17:36.159Z,87.18
2022-10-15T10:18:36.148Z,87.63
2022-10-15T10:19:36.132Z,88.19
2022-10-15T10:20:36.148Z,89.40
2022-10-15T10:21:36.137Z,91.25
2022-10-15T10:22:36.101Z,94.00
2022-10-15T10:23:36.089Z,95.25
2022-10-15T10:24:36.080Z,98.15
2022-10-15T10:25:36.084Z,100.01
2022-10-15T10:26:36.048Z,100.73
2022-10-15T10:27:36.048Z,101.52
2022-10-15T10:28:39.372Z,103.08
2022-10-15T10:29:37.153Z,105.28
2022-10-15T10:30:36.040Z,106.68
2022-10-15T10:31:35.988Z,108.12
2022-10-15T10:32:35.985Z,109.96
2022-10-15T10:33:35.981Z,110.39
2022-10-15T10:34:35.962Z,111.56
2022-10-15T10:35:35.963Z,113.98
2022-10-15T10:36:37.351Z,114.84
2022-10-15T10:37:35.923Z,115.63
2022-10-15T10:38:35.914Z,116.19
2022-10-15T10:39:35.901Z,115.95
2022-10-15T10:40:35.919Z,117.32
2022-10-15T10:41:35.903Z,117.82
2022-10-15T10:42:35.871Z,117.49
2022-10-15T10:43:39.068Z,115.31
2022-10-15T10:44:35.851Z,115.23
2022-10-15T10:45:35.854Z,115.31
2022-10-15T10:46:35.826Z,115.87
2022-10-15T10:47:35.816Z,116.03
2022-10-15T10:48:35.800Z,115.79
2022-10-15T10:49:35.784Z,116.35
2022-10-15T10:50:35.783Z,114.68
2022-10-15T10:51:35.784Z,114.21
2022-10-15T10:52:35.766Z,112.16
2022-10-15T10:53:35.741Z,110.39
2022-10-15T10:54:35.796Z,109.31
2022-10-15T10:55:35.725Z,108.05
2022-10-15T10:56:35.749Z,106.27
2022-10-15T10:57:35.688Z,104.82
2022-10-15T10:58:35.680Z,104.29
2022-10-15T10:59:35.667Z,103.53
2022-10-15T11:00:35.747Z,102.14
2022-10-15T11:01:35.668Z,102.20
2022-10-15T11:02:35.632Z,99.60
2022-10-15T11:03:35.617Z,97.75
2022-10-15T11:04:35.612Z,97.29
2022-10-15T11:05:35.599Z,97.24
2022-10-15T11:06:35.602Z,96.46
2022-10-15T11:07:35.576Z,96.79
2022-10-15T11:08:35.580Z,95.15
2022-10-15T11:09:35.549Z,95.15
2022-10-15T11:10:35.550Z,95.58
2022-10-15T11:11:35.538Z,96.85
2022-10-15T11:12:35.526Z,97.86
2022-10-15T11:13:35.512Z,98.49
2022-10-15T11:14:35.494Z,97.86
2022-10-15T11:15:35.478Z,97.46
2022-10-15T11:16:35.497Z,92.96
2022-10-15T11:17:35.453Z,83.79
2022-10-15T11:18:35.452Z,81.75
2022-10-15T11:19:59.659Z,81.44
2022-10-15T11:20:53.003Z,79.06
2022-10-15T11:21:36.428Z,74.84
2022-10-15T11:22:35.403Z,70.57
2022-10-15T11:23:35.391Z,68.67
2022-10-15T11:24:48.351Z,69.52
2022-10-15T11:25:36.359Z,69.23
2022-10-15T11:26:41.625Z,67.56
2022-10-15T11:27:36.349Z,63.58
2022-10-15T11:28:35.374Z,58.90
2022-10-15T11:29:35.322Z,55.11
2022-10-15T11:30:35.312Z,52.01
2022-10-15T11:31:43.992Z,49.70
2022-10-15T11:32:54.368Z,47.11
2022-10-15T11:33:36.261Z,44.95
2022-10-15T11:34:35.255Z,42.84
2022-10-15T11:35:52.534Z,41.99
2022-10-15T11:36:36.267Z,40.89
2022-10-15T11:37:35.243Z,40.77
2022-10-15T11:38:35.213Z,40.30
2022-10-15T11:39:35.195Z,40.57
2022-10-15T11:40:35.193Z,41.17
2022-10-15T11:41:35.184Z,41.49
2022-10-15T11:42:35.175Z,44.06
2022-10-15T11:43:35.167Z,47.81
2022-10-15T11:44:35.136Z,50.39
2022-10-15T11:45:35.124Z,52.24
2022-10-15T11:46:35.127Z,52.99
2022-10-15T11:47:35.102Z,52.79
2022-10-15T11:48:35.098Z,50.82
2022-10-15T11:50:35.069Z,47.78
2022-10-15T11:51:35.058Z,47.01
2022-10-15T11:52:35.056Z,45.00
2022-10-15T11:53:35.047Z,42.71
2022-10-15T11:54:35.029Z,42.37
2022-10-15T11:55:35.012Z,42.41
2022-10-15T11:56:38.038Z,42.76
2022-10-15T11:57:34.996Z,44.06
2022-10-15T11:58:34.998Z,45.53
2022-10-15T11:59:34.961Z,47.11
2022-10-15T12:00:34.950Z,48.53
2022-10-15T12:01:34.939Z,50.51
2022-10-15T12:02:34.930Z,51.98
2022-10-15T12:03:34.919Z,53.53
2022-10-15T12:04:34.962Z,54.90
2022-10-15T12:05:34.902Z,55.08
2022-10-15T12:06:34.891Z,56.52
2022-10-15T12:07:34.879Z,57.49
2022-10-15T12:08:34.857Z,58.29
2022-10-15T12:09:34.866Z,58.73
2022-10-15T12:10:34.837Z,58.98
2022-10-15T12:11:34.821Z,60.64
2022-10-15T12:12:34.824Z,63.00
2022-10-15T12:13:34.804Z,64.11
2022-10-15T12:14:34.810Z,65.51
2022-10-15T12:15:34.785Z,66.49
2022-10-15T12:16:34.773Z,67.67
2022-10-15T12:17:34.750Z,67.18
2022-10-15T12:18:34.743Z,68.33
2022-10-15T12:19:34.734Z,69.92
2022-10-15T12:20:34.741Z,71.04
2022-10-15T12:21:34.699Z,72.14
2022-10-15T12:22:34.958Z,70.80
2022-10-15T12:23:34.670Z,69.17
2022-10-15T12:24:34.672Z,67.61
2022-10-15T12:25:34.679Z,68.61
2022-10-15T12:26:34.654Z,69.92
2022-10-15T12:27:34.675Z,71.22
2022-10-15T12:28:34.674Z,72.39
2022-10-15T12:29:34.630Z,73.46
2022-10-15T12:30:34.643Z,74.38
2022-10-15T12:31:38.387Z,75.11
2022-10-15T12:32:34.586Z,76.89
2022-10-15T12:33:34.575Z,78.11
2022-10-15T12:34:34.557Z,79.29
2022-10-15T12:35:34.557Z,80.89
2022-10-15T12:36:34.535Z,81.51
2022-10-15T12:37:34.528Z,82.31
2022-10-15T12:38:34.517Z,81.51
2022-10-15T12:39:51.275Z,77.82
2022-10-15T12:40:35.487Z,77.39
2022-10-15T12:41:34.468Z,77.75
2022-10-15T12:42:34.467Z,78.40
2022-10-15T12:43:34.437Z,79.29
2022-10-15T12:44:34.445Z,79.21
2022-10-15T12:45:37.365Z,77.53
2022-10-15T12:46:35.419Z,75.99
2022-10-15T12:47:34.406Z,73.21
2022-10-15T12:48:34.389Z,73.15
2022-10-15T12:49:34.379Z,73.59
2022-10-15T12:50:34.371Z,73.27
2022-10-15T12:51:34.360Z,73.53
2022-10-15T12:52:34.347Z,74.38
2022-10-15T12:53:34.457Z,75.71
2022-10-15T12:54:34.323Z,76.26